Time;durP1;ratioP1;P1;durP2;ratioP2;P2;SDS_P1;SDS_P2;PMS_P1;PMS_P2;Temp;Humidity;BMP_temperature;BMP_pressure;BME280_temperature;BME280_humidity;BME280_pressure;Samples;Min_cycle;Max_cycle;Signal;HPM_P1;HPM_P2
2022/05/02 00:01:31;;;;;;;7.68;2.90;;;;;;;9.00;100.00;101507.78;5047961;28;20043;-82
2022/05/02 00:03:57;;;;;;;7.57;3.30;;;;;;;8.96;100.00;101501.03;5050608;28;20025;-81
2022/05/02 00:06:23;;;;;;;8.13;3.80;;;;;;;8.91;100.00;101506.81;5054470;28;20108;-81
2022/05/02 00:08:49;;;;;;;12.02;4.45;;;;;;;8.91;100.00;101511.34;5040649;28;20036;-81
2022/05/02 00:11:14;;;;;;;10.23;4.50;;;;;;;8.84;100.00;101504.84;5070603;28;20378;-81
2022/05/02 00:13:40;;;;;;;13.07;4.50;;;;;;;8.87;100.00;101507.28;5038699;28;20036;-81
2022/05/02 00:16:07;;;;;;;16.88;5.55;;;;;;;8.86;100.00;101502.88;5053920;28;20044;-82
2022/05/02 00:18:32;;;;;;;12.38;4.60;;;;;;;8.80;100.00;101497.13;5071865;28;20032;-81
2022/05/02 00:20:58;;;;;;;11.43;4.72;;;;;;;8.76;100.00;101501.09;5049112;28;20390;-80
2022/05/02 00:23:24;;;;;;;10.77;5.20;;;;;;;8.67;100.00;101493.06;5035542;28;20033;-82
2022/05/02 00:25:50;;;;;;;15.98;5.03;;;;;;;8.60;100.00;101498.19;5053747;28;20071;-81
2022/05/02 00:28:16;;;;;;;9.27;4.00;;;;;;;8.62;100.00;101498.03;5036498;28;20047;-81
2022/05/02 00:30:42;;;;;;;9.60;4.20;;;;;;;8.65;100.00;101509.28;5034676;28;20419;-82
2022/05/02 00:33:08;;;;;;;7.95;3.83;;;;;;;8.59;100.00;101483.06;5069826;28;20402;-82
2022/05/02 00:35:34;;;;;;;10.63;3.88;;;;;;;8.68;100.00;101495.63;5034268;28;20043;-81
2022/05/02 00:38:00;;;;;;;9.52;4.00;;;;;;;8.75;100.00;101495.88;5053505;28;20119;-81
2022/05/02 00:40:25;;;;;;;8.25;3.88;;;;;;;8.77;100.00;101500.09;5034625;28;20032;-82
2022/05/02 00:42:51;;;;;;;11.43;4.10;;;;;;;8.83;100.00;101503.19;5070355;28;20055;-82
2022/05/02 00:45:18;;;;;;;8.27;4.05;;;;;;;8.82;100.00;101496.97;5050853;28;20048;-81
2022/05/02 00:47:52;;;;;;;11.02;3.80;;;;;;;8.80;100.00;101498.94;5066131;28;20123;-82
2022/05/02 00:50:31;;;;;;;12.57;3.78;;;;;;;8.80;100.00;101502.47;5070878;28;20028;-82
2022/05/02 00:52:56;;;;;;;8.57;3.55;;;;;;;8.74;100.00;101483.47;5065780;28;20060;-82
2022/05/02 00:55:22;;;;;;;7.82;3.40;;;;;;;8.75;100.00;101485.13;5046807;28;20060;-81
2022/05/02 00:57:48;;;;;;;6.88;2.80;;;;;;;8.81;100.00;101497.94;5053435;28;20955;-81
2022/05/02 01:00:14;;;;;;;8.75;3.08;;;;;;;8.81;100.00;101503.31;5051083;28;20051;-82
2022/05/02 01:02:39;;;;;;;10.45;3.40;;;;;;;8.80;100.00;101499.78;5035646;28;20473;-82
2022/05/02 01:05:05;;;;;;;9.10;4.22;;;;;;;8.71;100.00;101494.47;5035873;28;20094;-82
2022/05/02 01:07:31;;;;;;;8.13;3.38;;;;;;;8.73;100.00;101501.41;5050633;28;20389;-83
2022/05/02 01:09:57;;;;;;;8.57;4.80;;;;;;;8.69;100.00;101491.94;5069763;28;20060;-81
2022/05/02 01:12:24;;;;;;;7.72;3.55;;;;;;;8.70;100.00;101495.44;5070756;28;20436;-81
2022/05/02 01:14:56;;;;;;;7.20;2.90;;;;;;;8.75;100.00;101494.03;5049770;28;20028;-81
2022/05/02 01:17:23;;;;;;;8.60;2.95;;;;;;;8.82;100.00;101506.88;5052934;28;20131;-81
2022/05/02 01:19:50;;;;;;;5.80;2.70;;;;;;;8.77;100.00;101500.09;5068778;28;20078;-82
2022/05/02 01:22:16;;;;;;;7.18;3.10;;;;;;;8.85;100.00;101507.41;5049366;28;20036;-83
2022/05/02 01:24:43;;;;;;;5.95;2.72;;;;;;;8.87;100.00;101509.97;5068406;28;20367;-81
2022/05/02 01:27:10;;;;;;;5.68;2.92;;;;;;;8.86;100.00;101510.94;5036757;28;20503;-81
2022/05/02 01:29:37;;;;;;;9.20;3.00;;;;;;;8.79;100.00;101508.84;5068138;28;20067;-82
2022/05/02 01:32:08;;;;;;;6.30;2.65;;;;;;;8.82;100.00;101512.22;5035359;28;20127;-81
2022/05/02 01:34:35;;;;;;;5.18;2.78;;;;;;;8.79;100.00;101508.00;5035425;28;20078;-81
2022/05/02 01:37:01;;;;;;;7.68;3.13;;;;;;;8.79;100.00;101513.38;5034682;28;20039;-81
2022/05/02 01:39:28;;;;;;;8.68;3.35;;;;;;;8.75;100.00;101501.22;5057949;28;20060;-81
2022/05/02 01:41:54;;;;;;;6.43;3.10;;;;;;;8.79;100.00;101510.69;5068046;28;20044;-81
2022/05/02 01:44:19;;;;;;;9.15;3.40;;;;;;;8.80;100.00;101521.25;5030976;28;20048;-81
2022/05/02 01:46:45;;;;;;;9.10;3.72;;;;;;;8.70;100.00;101503.50;5050980;28;20036;-80
2022/05/02 01:49:10;;;;;;;6.95;2.72;;;;;;;8.78;100.00;101517.84;5069599;28;20051;-81
2022/05/02 01:51:36;;;;;;;8.55;3.33;;;;;;;8.75;100.00;101517.31;5067826;28;20385;-81
2022/05/02 01:54:02;;;;;;;9.48;3.38;;;;;;;8.75;100.00;101510.09;5067831;28;20449;-81
2022/05/02 01:56:27;;;;;;;11.30;4.72;;;;;;;8.75;100.00;101523.53;5064752;28;20056;-82
2022/05/02 01:58:53;;;;;;;9.27;3.60;;;;;;;8.74;100.00;101529.88;5084177;28;20036;-80
2022/05/02 02:01:19;;;;;;;9.18;3.70;;;;;;;8.71;100.00;101513.25;5060236;28;20033;-82
2022/05/02 02:03:44;;;;;;;10.60;4.18;;;;;;;8.73;100.00;101513.94;5091574;28;20021;-80
2022/05/02 02:06:10;;;;;;;9.60;3.65;;;;;;;8.73;100.00;101512.13;5094263;28;20017;-81
2022/05/02 02:08:36;;;;;;;9.45;3.33;;;;;;;8.71;100.00;101511.41;5072497;28;20024;-80
2022/05/02 02:11:05;;;;;;;8.32;3.35;;;;;;;8.69;100.00;101502.66;5058682;28;20044;-81
2022/05/02 02:13:31;;;;;;;8.52;3.38;;;;;;;8.71;100.00;101510.56;5032334;28;20029;-81
2022/05/02 02:15:57;;;;;;;11.68;3.92;;;;;;;8.70;100.00;101509.69;5067276;28;20024;-80
2022/05/02 02:18:23;;;;;;;10.15;3.47;;;;;;;8.70;100.00;101512.38;5063100;28;20488;-80
2022/05/02 02:20:52;;;;;;;8.48;3.60;;;;;;;8.70;100.00;101509.69;5064026;28;20036;-83
2022/05/02 02:23:18;;;;;;;8.07;4.13;;;;;;;8.69;100.00;101507.19;5043668;28;20036;-81
2022/05/02 02:25:44;;;;;;;8.77;3.70;;;;;;;8.73;100.00;101513.94;5032018;28;20047;-81
2022/05/02 02:28:10;;;;;;;8.32;3.55;;;;;;;8.70;100.00;101504.34;5068034;28;20028;-81
2022/05/02 02:30:35;;;;;;;10.20;4.05;;;;;;;8.69;100.00;101499.97;5067866;28;20036;-81
2022/05/02 02:33:02;;;;;;;6.65;3.08;;;;;;;8.80;100.00;101515.03;5069698;28;20117;-81
2022/05/02 02:35:28;;;;;;;9.63;3.25;;;;;;;8.78;100.00;101517.84;5031117;28;20481;-81
2022/05/02 02:37:54;;;;;;;8.88;3.60;;;;;;;8.77;100.00;101518.03;5033399;28;20028;-80
2022/05/02 02:40:20;;;;;;;7.18;3.72;;;;;;;8.75;100.00;101518.16;5046244;28;20474;-80
2022/05/02 02:42:46;;;;;;;12.25;4.05;;;;;;;8.75;100.00;101520.00;5042942;28;20508;-81
2022/05/02 02:45:12;;;;;;;8.10;3.38;;;;;;;8.68;100.00;101505.47;5067062;28;20123;-80
2022/05/02 02:47:38;;;;;;;6.75;3.17;;;;;;;8.73;100.00;101514.78;5065741;28;20032;-81
2022/05/02 02:50:04;;;;;;;8.13;3.65;;;;;;;8.71;100.00;101527.50;5067418;28;20035;-81
2022/05/02 02:52:30;;;;;;;8.60;3.78;;;;;;;8.52;100.00;101490.84;5034065;28;20028;-81
2022/05/02 02:54:55;;;;;;;5.75;3.03;;;;;;;8.65;100.00;101522.69;5049635;28;20553;-81
2022/05/02 02:57:21;;;;;;;7.32;3.33;;;;;;;8.63;100.00;101519.34;5051772;28;20033;-81
2022/05/02 02:59:47;;;;;;;7.78;2.83;;;;;;;8.63;100.00;101511.28;5067040;28;20028;-81
2022/05/02 03:02:13;;;;;;;7.05;3.47;;;;;;;8.67;100.00;101522.56;5050153;28;20394;-80
2022/05/02 03:07:24;;;;;;;9.43;3.72;;;;;;;8.66;100.00;101520.88;5068485;28;20035;-81
2022/05/02 03:09:50;;;;;;;5.15;2.63;;;;;;;8.69;100.00;101517.91;5058587;28;20024;-81
2022/05/02 03:12:15;;;;;;;4.82;2.55;;;;;;;8.69;100.00;101512.53;5064594;28;20039;-82
2022/05/02 03:14:41;;;;;;;5.15;2.40;;;;;;;8.84;100.00;101523.63;5067654;28;20051;-80
2022/05/02 03:17:06;;;;;;;7.07;2.80;;;;;;;8.81;100.00;101516.72;5051115;28;20072;-81
2022/05/02 03:19:32;;;;;;;8.52;3.42;;;;;;;8.79;100.00;101508.84;5052733;28;20029;-81
2022/05/02 03:21:58;;;;;;;7.30;3.40;;;;;;;8.80;100.00;101510.53;5050511;28;20034;-81
2022/05/02 03:24:23;;;;;;;6.95;2.60;;;;;;;8.77;100.00;101508.13;5053114;28;20474;-80
2022/05/02 03:26:49;;;;;;;8.43;3.17;;;;;;;8.80;100.00;101510.53;5068910;28;20638;-81
2022/05/02 03:29:14;;;;;;;6.78;2.88;;;;;;;8.85;100.00;101514.63;5066013;28;20525;-81
2022/05/02 03:31:40;;;;;;;7.03;2.38;;;;;;;8.84;100.00;101508.41;5072414;28;20422;-81
2022/05/02 03:34:06;;;;;;;8.88;3.65;;;;;;;8.88;100.00;101519.69;5071923;28;20036;-81
2022/05/02 03:36:31;;;;;;;9.05;3.42;;;;;;;8.88;100.00;101517.00;5067412;28;20098;-81
2022/05/02 03:38:57;;;;;;;6.10;2.78;;;;;;;8.77;100.00;101499.25;5069652;28;20028;-81
2022/05/02 03:41:23;;;;;;;6.43;3.80;;;;;;;8.62;100.00;101480.09;5038845;28;20040;-81
2022/05/02 03:43:48;;;;;;;9.18;3.20;;;;;;;8.86;100.00;101514.44;5038721;28;20024;-81
2022/05/02 03:46:14;;;;;;;9.00;3.28;;;;;;;8.85;100.00;101519.97;5071190;28;20501;-81
2022/05/02 03:48:39;;;;;;;7.70;3.58;;;;;;;8.86;100.00;101524.34;5056905;28;20489;-82
2022/05/02 03:51:05;;;;;;;5.95;3.38;;;;;;;8.89;100.00;101529.41;5071731;28;22040;-81
2022/05/02 03:53:30;;;;;;;6.45;2.80;;;;;;;8.68;100.00;101494.75;5069245;28;20458;-81
2022/05/02 03:55:56;;;;;;;6.15;2.97;;;;;;;8.93;100.00;101528.13;5064707;28;20056;-81
2022/05/02 03:58:23;;;;;;;9.32;3.65;;;;;;;8.95;100.00;101534.22;5051324;28;20037;-82
2022/05/02 04:00:48;;;;;;;5.65;2.65;;;;;;;8.98;100.00;101534.75;5051350;28;20044;-81
2022/05/02 04:03:14;;;;;;;6.43;3.17;;;;;;;8.98;100.00;101529.38;5053496;28;20089;-81
2022/05/02 04:05:40;;;;;;;5.47;3.10;;;;;;;8.98;100.00;101534.75;5071444;28;20073;-81
2022/05/02 04:08:05;;;;;;;7.43;3.30;;;;;;;9.00;100.00;101532.78;5072394;28;20032;-81
2022/05/02 04:10:31;;;;;;;6.07;3.08;;;;;;;8.96;100.00;101519.78;5070460;28;20469;-81
2022/05/02 04:12:57;;;;;;;6.60;3.10;;;;;;;9.05;100.00;101537.72;5070980;28;20029;-81
2022/05/02 04:15:22;;;;;;;9.27;4.72;;;;;;;9.05;100.00;101532.34;5068784;28;20040;-81
2022/05/02 04:17:48;;;;;;;9.07;3.28;;;;;;;8.96;100.00;101515.28;5070483;28;20028;-81
2022/05/02 04:20:13;;;;;;;7.10;3.85;;;;;;;9.06;100.00;101538.53;5049551;28;20490;-82
2022/05/02 04:22:40;;;;;;;13.70;6.03;;;;;;;9.06;100.00;101533.19;5050421;28;20462;-81
2022/05/02 04:25:09;;;;;;;17.92;6.95;;;;;;;9.01;100.00;101531.78;5033283;28;20035;-81
2022/05/02 04:27:34;;;;;;;17.90;7.88;;;;;;;8.93;100.00;101537.03;5064376;28;20403;-81
2022/05/02 04:30:00;;;;;;;19.13;8.38;;;;;;;8.91;100.00;101533.63;5066398;28;20112;-81
2022/05/02 04:32:26;;;;;;;13.55;6.07;;;;;;;8.93;100.00;101544.22;5053361;28;20378;-82
2022/05/02 04:34:56;;;;;;;9.35;4.10;;;;;;;8.93;100.00;101539.69;5053772;28;20039;-81
2022/05/02 04:37:21;;;;;;;7.00;3.85;;;;;;;8.92;100.00;101539.88;5064052;28;20099;-82
2022/05/02 04:39:47;;;;;;;10.65;4.07;;;;;;;8.93;100.00;101544.22;5070086;28;20037;-82
2022/05/02 04:42:13;;;;;;;7.43;3.50;;;;;;;8.87;100.00;101534.09;5037860;28;20037;-82
2022/05/02 04:44:39;;;;;;;10.27;4.05;;;;;;;8.91;100.00;101549.72;5036305;28;20040;-82
2022/05/02 04:47:05;;;;;;;10.18;4.35;;;;;;;8.93;100.00;101553.13;5055589;28;20105;-81
2022/05/02 04:49:30;;;;;;;14.65;4.88;;;;;;;8.85;100.00;101538.75;5052923;28;20029;-81
2022/05/02 04:51:56;;;;;;;8.73;4.10;;;;;;;8.95;100.00;101550.31;5034806;28;20032;-81
2022/05/02 04:54:21;;;;;;;10.18;4.82;;;;;;;9.01;100.00;101549.72;5036415;28;20482;-81
2022/05/02 04:56:47;;;;;;;11.43;4.30;;;;;;;9.09;100.00;101563.22;5069244;28;20362;-82
2022/05/02 04:59:12;;;;;;;9.80;4.28;;;;;;;9.11;100.00;101560.41;5037795;28;20032;-82
2022/05/02 05:01:38;;;;;;;11.90;5.00;;;;;;;9.12;100.00;101568.31;5052204;28;20039;-81
2022/05/02 05:04:04;;;;;;;13.50;4.75;;;;;;;9.16;100.00;101575.09;5036470;28;20028;-81
2022/05/02 05:06:29;;;;;;;11.60;5.30;;;;;;;9.14;100.00;101571.69;5068020;28;20067;-81
2022/05/02 05:08:55;;;;;;;12.90;5.20;;;;;;;9.19;100.00;101573.94;5053617;28;20046;-81
2022/05/02 05:11:45;;;;;;;10.80;4.90;;;;;;;9.19;100.00;101573.94;5051824;28;20035;-81
2022/05/02 05:18:00;;;;;;;12.48;4.78;;;;;;;9.20;100.00;101581.00;5070904;28;20021;-81
2022/05/02 05:20:46;;;;;;;10.18;4.55;;;;;;;9.13;100.00;101567.31;4998879;28;20068;-81
2022/05/02 05:23:21;;;;;;;11.10;5.10;;;;;;;9.24;100.00;101577.88;5032519;28;20047;-81
2022/05/02 05:26:11;;;;;;;9.90;4.32;;;;;;;9.23;100.00;101581.56;5053346;28;20382;-81
2022/05/02 05:28:49;;;;;;;12.43;5.40;;;;;;;9.21;100.00;101575.50;5046891;28;20040;-81
2022/05/02 05:31:33;;;;;;;11.95;4.70;;;;;;;9.24;100.00;101585.09;5067152;28;20539;-81
2022/05/02 05:34:18;;;;;;;11.35;4.78;;;;;;;9.24;100.00;101591.28;5050754;28;20295;-81
2022/05/02 05:36:55;;;;;;;10.30;4.97;;;;;;;9.16;100.00;101571.56;5067683;28;20044;-81
2022/05/02 05:39:43;;;;;;;11.50;4.50;;;;;;;9.26;100.00;101585.75;5051392;28;20039;-81
2022/05/02 05:42:17;;;;;;;14.38;5.15;;;;;;;9.29;100.00;101588.16;5069251;28;20036;-81
2022/05/02 05:44:59;;;;;;;11.35;5.30;;;;;;;9.32;100.00;101595.09;5070083;28;20040;-81
2022/05/02 05:47:39;;;;;;;15.73;6.00;;;;;;;9.36;100.00;101588.41;5048307;28;20060;-81
2022/05/02 05:50:13;;;;;;;13.02;5.43;;;;;;;9.40;100.00;101592.50;5069864;28;20146;-80
2022/05/02 05:53:16;;;;;;;14.57;6.05;;;;;;;9.45;100.00;101601.81;5051426;28;20263;-81
2022/05/02 05:55:57;;;;;;;13.05;5.95;;;;;;;9.39;100.00;101588.97;5063501;28;20131;-81
2022/05/02 05:58:34;;;;;;;15.70;6.22;;;;;;;9.52;100.00;101609.25;5048364;28;20358;-81
2022/05/02 06:01:12;;;;;;;12.52;5.90;;;;;;;9.58;100.00;101609.53;5036148;28;20032;-81
2022/05/02 06:04:06;;;;;;;17.63;6.60;;;;;;;9.63;100.00;101611.75;5046339;28;20041;-82
2022/05/02 06:06:32;;;;;;;10.68;5.03;;;;;;;9.72;100.00;101620.75;5051844;28;20484;-82
2022/05/02 06:08:59;;;;;;;11.65;5.43;;;;;;;9.78;100.00;101622.84;5050166;28;20028;-81
2022/05/02 06:11:28;;;;;;;13.02;5.63;;;;;;;9.83;100.00;101625.94;5035131;28;20511;-81
2022/05/02 06:13:56;;;;;;;13.23;5.53;;;;;;;9.90;100.00;101629.72;5067451;28;20032;-81
2022/05/02 06:19:34;;;;;;;12.90;5.55;;;;;;;10.02;100.00;101627.66;5059176;28;20036;-82
2022/05/02 06:22:07;;;;;;;11.73;5.93;;;;;;;10.10;100.00;101623.22;5037036;28;20101;-81
2022/05/02 06:24:36;;;;;;;14.48;5.93;;;;;;;10.19;100.00;101620.59;5029032;28;20128;-81
2022/05/02 06:27:05;;;;;;;11.60;5.45;;;;;;;10.30;100.00;101625.81;5062051;28;20098;-82
2022/05/02 06:29:34;;;;;;;13.32;5.90;;;;;;;10.32;100.00;101621.13;5056379;28;20028;-81
2022/05/02 06:32:01;;;;;;;13.45;6.07;;;;;;;10.41;100.00;101620.19;5045663;28;20033;-81
2022/05/02 06:34:28;;;;;;;13.88;6.05;;;;;;;10.42;100.00;101621.88;5050048;28;20036;-81
2022/05/02 06:37:04;;;;;;;10.52;5.60;;;;;;;10.49;100.00;101622.97;5065745;28;20469;-82
2022/05/02 06:39:55;;;;;;;13.38;5.63;;;;;;;10.60;100.00;101618.34;5069199;28;20078;-81
2022/05/02 06:42:39;;;;;;;11.90;5.43;;;;;;;10.65;100.00;101613.34;5052118;28;20439;-81
2022/05/02 06:45:22;;;;;;;13.30;6.78;;;;;;;10.75;100.00;101627.56;5051647;28;20269;-81
2022/05/02 06:47:51;;;;;;;13.02;5.97;;;;;;;10.82;100.00;101627.78;5052446;28;20043;-82
2022/05/02 06:50:19;;;;;;;14.68;6.43;;;;;;;10.86;100.00;101630.00;5034940;28;20434;-81
2022/05/02 06:52:58;;;;;;;11.57;5.35;;;;;;;11.00;100.00;101642.88;5051216;28;20056;-81
2022/05/02 06:55:34;;;;;;;12.40;6.28;;;;;;;11.13;100.00;101637.09;5048594;28;20040;-81
2022/05/02 06:58:15;;;;;;;15.10;6.57;;;;;;;11.31;100.00;101639.72;5069570;28;20028;-81
2022/05/02 07:00:55;;;;;;;16.50;6.32;;;;;;;11.44;100.00;101637.44;5051331;28;20093;-82
2022/05/02 07:03:27;;;;;;;14.73;5.68;;;;;;;11.53;100.00;101637.50;5034112;28;20037;-82
2022/05/02 07:06:14;;;;;;;15.20;5.82;;;;;;;11.70;100.00;101628.50;5066276;28;20487;-81
2022/05/02 07:09:04;;;;;;;11.80;6.25;;;;;;;11.81;100.00;101630.03;5072320;28;20098;-81
2022/05/02 07:11:43;;;;;;;12.35;5.40;;;;;;;11.87;100.00;101634.81;5051394;28;20040;-81
2022/05/02 07:14:32;;;;;;;12.70;6.55;;;;;;;11.93;100.00;101620.66;5065040;28;20405;-82
2022/05/02 07:17:02;;;;;;;13.15;7.07;;;;;;;12.15;100.00;101627.31;5054597;28;20350;-82
2022/05/02 07:20:00;;;;;;;13.73;6.07;;;;;;;12.26;100.00;101620.78;5047928;28;20599;-82
2022/05/02 07:22:33;;;;;;;11.27;5.70;;;;;;;12.52;100.00;101623.34;5020703;28;20048;-82
2022/05/02 07:25:19;;;;;;;12.45;6.13;;;;;;;12.69;100.00;101630.41;5065540;28;20029;-83
2022/05/02 07:28:19;;;;;;;12.82;6.75;;;;;;;12.86;100.00;101630.41;5033844;28;20040;-82
2022/05/02 07:30:46;;;;;;;10.80;5.38;;;;;;;13.00;100.00;101627.03;5051991;28;20236;-82
2022/05/02 07:33:12;;;;;;;12.63;6.22;;;;;;;13.05;100.00;101624.66;5062710;28;20033;-84
2022/05/02 07:35:39;;;;;;;11.77;6.65;;;;;;;12.89;100.00;101616.59;5046939;28;20032;-81
2022/05/02 07:38:05;;;;;;;12.35;6.63;;;;;;;12.85;100.00;101634.97;5066228;28;20041;-81
2022/05/02 07:40:31;;;;;;;9.88;5.25;;;;;;;12.86;100.00;101641.19;5066332;28;20059;-81
2022/05/02 07:42:58;;;;;;;12.20;6.30;;;;;;;12.82;100.00;101634.47;5053686;28;20036;-81
2022/05/02 07:45:27;;;;;;;12.57;6.07;;;;;;;12.89;100.00;101636.31;5042780;28;20037;-82
2022/05/02 07:47:54;;;;;;;12.63;6.38;;;;;;;12.90;100.00;101638.00;5051344;28;20071;-80
2022/05/02 07:50:21;;;;;;;10.25;5.80;;;;;;;12.97;100.00;101633.63;5059581;28;20389;-81
2022/05/02 07:52:48;;;;;;;10.95;5.90;;;;;;;13.08;100.00;101621.63;5029806;28;20063;-82
2022/05/02 07:55:14;;;;;;;9.57;5.43;;;;;;;13.18;100.00;101633.09;5060068;28;20378;-82
2022/05/02 07:57:41;;;;;;;12.98;6.15;;;;;;;13.25;100.00;101649.44;5051874;28;20037;-82
2022/05/02 08:00:10;;;;;;;10.18;6.15;;;;;;;13.11;100.00;101644.75;5066338;28;20029;-81
2022/05/02 08:02:36;;;;;;;9.70;5.80;;;;;;;13.00;100.00;101634.31;5049896;28;20102;-82
2022/05/02 08:05:04;;;;;;;10.95;6.28;;;;;;;12.97;100.00;101638.19;5067530;28;20028;-81
2022/05/02 08:07:36;;;;;;;8.02;4.55;;;;;;;13.06;100.00;101661.44;5035761;28;20036;-81
2022/05/02 08:10:39;;;;;;;10.10;4.73;;;;;;;13.08;99.06;101662.13;5070387;28;20089;-82
2022/05/02 08:13:14;;;;;;;10.25;5.13;;;;;;;13.12;99.54;101659.91;5035730;28;20325;-81
2022/05/02 08:16:02;;;;;;;9.93;5.60;;;;;;;13.16;98.77;101656.72;5073368;28;20461;-81
2022/05/02 08:18:39;;;;;;;9.02;5.50;;;;;;;13.20;98.37;101654.50;5068312;28;20032;-81
2022/05/02 08:21:08;;;;;;;9.63;5.75;;;;;;;13.32;98.65;101652.34;5068519;28;20063;-81
2022/05/02 08:27:16;;;;;;;10.88;5.30;;;;;;;13.53;97.89;101663.41;5072271;28;20595;-82
2022/05/02 08:30:04;;;;;;;10.55;5.47;;;;;;;13.68;98.43;101666.25;5053065;28;20037;-81
2022/05/02 08:32:40;;;;;;;8.88;5.63;;;;;;;13.80;96.21;101672.97;5047809;28;20394;-81
2022/05/02 08:35:12;;;;;;;10.82;5.35;;;;;;;13.72;94.12;101664.88;5032238;28;20719;-82
2022/05/02 08:38:02;;;;;;;10.57;5.53;;;;;;;13.64;94.21;101663.03;5031110;28;20075;-81
2022/05/02 08:40:27;;;;;;;9.75;5.95;;;;;;;13.47;94.73;101629.00;5040194;28;20102;-81
2022/05/02 08:43:18;;;;;;;9.15;5.75;;;;;;;13.95;94.51;101675.78;5072489;28;20036;-82
2022/05/02 08:45:50;;;;;;;11.18;5.60;;;;;;;14.29;93.30;101683.56;5070424;28;20098;-81
2022/05/02 08:48:21;;;;;;;11.63;5.55;;;;;;;14.60;92.07;101687.28;5045732;28;20037;-81
2022/05/02 08:51:12;;;;;;;9.65;5.32;;;;;;;14.94;91.40;101689.56;5039364;28;20108;-84
2022/05/02 08:54:06;;;;;;;9.15;5.15;;;;;;;15.25;89.08;101683.22;5067551;28;20062;-86
2022/05/02 08:56:50;;;;;;;7.72;4.93;;;;;;;15.61;87.52;101691.44;5030774;28;20020;-88
2022/05/02 08:59:33;;;;;;;9.65;5.68;;;;;;;15.83;84.65;101687.84;5066428;28;20039;-83
2022/05/02 09:02:20;;;;;;;9.23;5.20;;;;;;;15.90;83.00;101676.25;5058190;28;20108;-83
2022/05/02 09:05:00;;;;;;;9.18;5.55;;;;;;;16.17;81.96;101682.88;5063973;28;20044;-84
2022/05/02 09:07:58;;;;;;;8.13;5.15;;;;;;;16.44;81.53;101681.28;5047712;28;20208;-84
2022/05/02 09:11:01;;;;;;;7.47;4.75;;;;;;;16.60;78.99;101680.22;5063193;28;20113;-84
2022/05/02 09:13:30;;;;;;;8.48;5.13;;;;;;;16.80;79.17;101678.53;5044070;28;20043;-84
2022/05/02 09:16:28;;;;;;;8.93;5.20;;;;;;;16.90;75.73;101689.09;5047767;28;20058;-83
2022/05/02 09:19:31;;;;;;;8.02;4.70;;;;;;;17.02;75.47;101684.81;5040918;28;20040;-84
2022/05/02 09:22:24;;;;;;;7.00;4.38;;;;;;;17.22;75.11;101681.41;5043772;28;20035;-85
2022/05/02 09:25:04;;;;;;;7.65;4.68;;;;;;;17.21;74.50;101699.59;5065452;28;20168;-83
2022/05/02 09:27:54;;;;;;;8.35;4.95;;;;;;;17.22;74.23;101689.56;5046603;28;20115;-83
2022/05/02 09:30:52;;;;;;;7.70;4.50;;;;;;;17.42;73.28;101698.72;5055999;28;20036;-83
2022/05/02 09:33:30;;;;;;;6.13;3.95;;;;;;;17.37;71.49;101701.19;5042976;28;20064;-79
2022/05/02 09:36:04;;;;;;;7.65;4.60;;;;;;;17.14;71.34;101696.81;5072916;28;20052;-79
2022/05/02 09:38:47;;;;;;;6.00;4.32;;;;;;;17.14;73.39;101695.97;5087242;28;20062;-78
2022/05/02 09:41:53;;;;;;;7.70;4.90;;;;;;;17.49;72.36;101698.75;5092542;28;20578;-78
2022/05/02 09:50:34;;;;;;;8.52;5.47;;;;;;;17.15;71.81;101711.28;5070911;28;20416;-77
2022/05/02 09:53:03;;;;;;;8.95;5.22;;;;;;;16.76;75.02;101719.84;5034191;28;20413;-81
2022/05/02 09:58:54;;;;;;;7.75;5.32;;;;;;;17.08;73.87;101696.78;5046733;28;20482;-81
2022/05/02 10:01:23;;;;;;;7.00;5.10;;;;;;;17.79;70.71;101710.28;5066906;28;20056;-78
2022/05/02 10:04:18;;;;;;;6.78;4.65;;;;;;;18.23;69.26;101684.53;5052895;28;20086;-81
2022/05/02 10:07:06;;;;;;;5.78;3.97;;;;;;;18.75;64.63;101710.25;5045022;28;20489;-81
2022/05/02 10:09:51;;;;;;;6.70;4.28;;;;;;;18.83;64.92;101711.94;5050447;28;20501;-80
2022/05/02 10:12:51;;;;;;;6.20;4.43;;;;;;;18.70;65.61;101712.72;5067522;28;20056;-80
2022/05/02 10:15:29;;;;;;;5.57;3.90;;;;;;;18.47;65.53;101707.66;5046776;28;20089;-80
2022/05/02 10:18:20;;;;;;;7.40;4.28;;;;;;;18.31;66.06;101708.00;5065899;28;20029;-80
2022/05/02 10:20:54;;;;;;;9.48;5.40;;;;;;;18.06;67.58;101710.44;5066459;28;20032;-84
2022/05/02 10:23:47;;;;;;;8.18;5.50;;;;;;;17.95;68.47;101709.13;5069610;28;20032;-82
2022/05/02 10:26:28;;;;;;;7.80;4.65;;;;;;;17.82;69.34;101707.16;5048275;28;20029;-82
2022/05/02 10:29:09;;;;;;;7.35;4.75;;;;;;;17.64;70.30;101704.09;5069797;28;20158;-83
2022/05/02 10:31:35;;;;;;;8.35;4.80;;;;;;;17.19;70.57;101692.69;5068080;28;20077;-79
2022/05/02 10:34:03;;;;;;;8.07;5.70;;;;;;;17.02;72.30;101709.28;5051931;28;20123;-78
2022/05/02 10:36:33;;;;;;;7.47;4.45;;;;;;;16.71;73.47;101701.41;5051317;28;20029;-80
2022/05/02 10:39:04;;;;;;;8.05;4.70;;;;;;;16.26;73.57;101692.56;5034418;28;20028;-80
2022/05/02 10:41:37;;;;;;;4.72;3.22;;;;;;;16.13;74.81;101708.69;5065086;28;20531;-83
2022/05/02 10:44:04;;;;;;;9.40;4.60;;;;;;;16.01;75.89;101713.75;5060970;28;20028;-79
2022/05/02 10:46:31;;;;;;;7.70;4.20;;;;;;;15.90;77.67;101704.19;5046295;28;20043;-80
2022/05/02 10:49:01;;;;;;;7.55;4.82;;;;;;;15.87;76.99;101714.59;5034319;28;20114;-81
2022/05/02 10:52:15;;;;;;;6.28;4.00;;;;;;;15.54;77.37;101682.41;5038162;28;20074;-79
2022/05/02 10:54:49;;;;;;;6.68;4.40;;;;;;;15.61;76.94;101705.88;4979480;28;20598;-81
2022/05/02 10:57:34;;;;;;;8.05;4.43;;;;;;;15.75;77.78;101692.53;5036089;28;20374;-79
2022/05/02 11:00:06;;;;;;;6.60;4.30;;;;;;;16.07;77.73;101687.75;5042864;28;20071;-79
2022/05/02 11:02:50;;;;;;;8.20;4.43;;;;;;;16.25;75.74;101670.03;5067481;28;20028;-80
2022/05/02 11:05:17;;;;;;;8.93;4.78;;;;;;;16.71;74.51;101683.25;5069489;28;20043;-77
2022/05/02 11:07:45;;;;;;;9.10;4.88;;;;;;;17.01;73.44;101671.41;5061981;28;20086;-80
2022/05/02 11:10:13;;;;;;;8.10;4.78;;;;;;;17.73;71.96;101673.81;5052536;28;20024;-79
2022/05/02 11:13:05;;;;;;;11.73;6.75;;;;;;;18.64;67.05;101675.44;5066962;28;20037;-80
2022/05/02 11:16:00;;;;;;;7.10;4.05;;;;;;;19.64;62.90;101687.19;5052873;28;20437;-79
2022/05/02 11:21:50;;;;;;;5.10;3.55;;;;;;;21.03;54.52;101685.66;5068482;28;20435;-80
2022/05/02 11:24:38;;;;;;;6.03;4.07;;;;;;;21.22;53.94;101689.31;5048092;28;20049;-83
2022/05/02 11:27:22;;;;;;;6.43;3.53;;;;;;;21.69;51.58;101684.22;5065582;28;20131;-79
2022/05/02 11:30:01;;;;;;;4.55;3.33;;;;;;;21.68;50.27;101690.78;5069102;28;20024;-80
2022/05/02 11:32:45;;;;;;;5.15;3.55;;;;;;;21.56;50.15;101691.75;5062583;28;20502;-80
2022/05/02 11:35:39;;;;;;;4.72;3.65;;;;;;;21.42;51.58;101686.41;5052102;28;20123;-80
2022/05/02 11:38:13;;;;;;;8.73;4.47;;;;;;;21.48;50.38;101690.97;5052242;28;20041;-79
2022/05/02 11:40:46;;;;;;;5.57;3.95;;;;;;;21.72;51.20;101674.72;5050251;28;20033;-80
2022/05/02 11:43:15;;;;;;;5.15;3.72;;;;;;;22.21;47.56;101672.91;5067803;28;20071;-79
2022/05/02 11:45:45;;;;;;;5.72;4.03;;;;;;;22.23;47.95;101673.53;5072676;28;20032;-82
2022/05/02 11:48:20;;;;;;;4.55;3.80;;;;;;;22.42;46.70;101659.78;5034999;28;20044;-81
2022/05/02 11:50:47;;;;;;;4.68;3.58;;;;;;;22.71;44.66;101678.09;5069389;28;20052;-81
2022/05/02 11:53:16;;;;;;;6.57;4.00;;;;;;;22.49;43.59;101674.19;5050519;28;20025;-80
2022/05/02 11:55:44;;;;;;;6.05;3.75;;;;;;;22.45;45.67;101673.00;5055639;28;20044;-81
2022/05/02 11:58:26;;;;;;;7.07;3.97;;;;;;;22.81;44.16;101664.66;5038085;28;20028;-81
2022/05/02 12:01:02;;;;;;;5.03;3.03;;;;;;;22.99;42.55;101657.44;5037331;28;20036;-82
2022/05/02 12:03:52;;;;;;;6.10;3.97;;;;;;;23.10;43.82;101669.47;5066346;28;20036;-80
2022/05/02 12:06:27;;;;;;;7.28;4.63;;;;;;;22.97;44.20;101674.13;5048793;28;20037;-80
2022/05/02 12:08:54;;;;;;;5.28;3.47;;;;;;;23.17;44.31;101673.78;5066534;28;20065;-79
2022/05/02 12:11:20;;;;;;;5.63;4.00;;;;;;;23.35;43.09;101672.00;5070750;28;20550;-79
2022/05/02 12:13:47;;;;;;;6.47;4.15;;;;;;;23.09;42.72;101679.63;5066103;28;20028;-79